VIR1PK EGBM-EGCK
Flight info
| Callsign | VIR1PK |
|---|---|
| Flight time | 0h 50m |
| Altitude | 6000 |
| Route | TELBA DCT MOFWE |
| Aircraft | C172/L-SFG/C |
Departure
| Time | 2026-05-08 12:48 |
|---|---|
| Airport | Tatenhill Airfield (EGBM) |
Arrival
| Time | 2026-05-08 13:39 |
|---|---|
| Airport | Caernarfon Airport (EGCK) |
| Time | Latitude | Longitude | Altitude | Speed | Heading |
|---|---|---|---|---|---|
| 2026-05-08 12:38 | 52.81601 | -1.75634 | 447 ft | 0 kts | 28° |
| 2026-05-08 12:44 | 52.81610 | -1.75606 | 436 ft | 3 kts | 96° |
| 2026-05-08 12:45 | 52.81606 | -1.75586 | 447 ft | 0 kts | 119° |
| 2026-05-08 12:47 | 52.81578 | -1.75565 | 437 ft | 9 kts | 195° |
| 2026-05-08 12:47 | 52.81542 | -1.75706 | 443 ft | 32 kts | 252° |
| 2026-05-08 12:47 | 52.81435 | -1.76317 | 435 ft | 77 kts | 251° |
| 2026-05-08 12:47 | 52.81269 | -1.77299 | 516 ft | 95 kts | 250° |
| 2026-05-08 12:48 | 52.81261 | -1.78535 | 509 ft | 117 kts | 260° |
| 2026-05-08 12:48 | 52.81048 | -1.79737 | 829 ft | 102 kts | 242° |
| 2026-05-08 12:48 | 52.80701 | -1.80646 | 1182 ft | 85 kts | 217° |
| 2026-05-08 12:48 | 52.80227 | -1.81276 | 1412 ft | 94 kts | 210° |
| 2026-05-08 12:49 | 52.79586 | -1.81601 | 1572 ft | 100 kts | 181° |
| 2026-05-08 12:49 | 52.78866 | -1.82063 | 1468 ft | 124 kts | 223° |
| 2026-05-08 12:49 | 52.78598 | -1.83452 | 1520 ft | 129 kts | 264° |
| 2026-05-08 12:49 | 52.78372 | -1.84826 | 1642 ft | 122 kts | 245° |
| 2026-05-08 12:50 | 52.78059 | -1.86145 | 1730 ft | 123 kts | 243° |
| 2026-05-08 12:50 | 52.77745 | -1.87428 | 1842 ft | 125 kts | 243° |
| 2026-05-08 12:50 | 52.77399 | -1.88816 | 1938 ft | 131 kts | 243° |
| 2026-05-08 12:50 | 52.77056 | -1.90200 | 2055 ft | 130 kts | 245° |
| 2026-05-08 12:51 | 52.76714 | -1.91563 | 2169 ft | 131 kts | 244° |
| 2026-05-08 12:51 | 52.76014 | -1.94336 | 2356 ft | 127 kts | 243° |
| 2026-05-08 12:51 | 52.75673 | -1.95668 | 2450 ft | 126 kts | 244° |
| 2026-05-08 12:52 | 52.75348 | -1.96966 | 2548 ft | 121 kts | 243° |
| 2026-05-08 12:52 | 52.74684 | -1.99577 | 2745 ft | 122 kts | 244° |
| 2026-05-08 12:52 | 52.74362 | -2.00847 | 2838 ft | 117 kts | 243° |
| 2026-05-08 12:53 | 52.74051 | -2.02068 | 2932 ft | 114 kts | 243° |
| 2026-05-08 12:53 | 52.73740 | -2.03289 | 3054 ft | 117 kts | 241° |
| 2026-05-08 12:53 | 52.73422 | -2.04542 | 3143 ft | 117 kts | 243° |
| 2026-05-08 12:53 | 52.73103 | -2.05786 | 3246 ft | 116 kts | 242° |
| 2026-05-08 12:54 | 52.72793 | -2.07016 | 3355 ft | 118 kts | 242° |
| 2026-05-08 12:54 | 52.72478 | -2.08256 | 3452 ft | 117 kts | 242° |
| 2026-05-08 12:54 | 52.72166 | -2.09477 | 3547 ft | 115 kts | 242° |
| 2026-05-08 12:54 | 52.71857 | -2.10684 | 3648 ft | 114 kts | 241° |
| 2026-05-08 12:55 | 52.71548 | -2.11899 | 3749 ft | 115 kts | 242° |
| 2026-05-08 12:55 | 52.71243 | -2.13102 | 3846 ft | 112 kts | 242° |
| 2026-05-08 12:55 | 52.70943 | -2.14274 | 3943 ft | 114 kts | 242° |
| 2026-05-08 12:55 | 52.70635 | -2.15475 | 4050 ft | 114 kts | 242° |
| 2026-05-08 12:56 | 52.70331 | -2.16671 | 4278 ft | 112 kts | 241° |
| 2026-05-08 12:56 | 52.70031 | -2.17841 | 4529 ft | 109 kts | 241° |
| 2026-05-08 12:56 | 52.69738 | -2.18984 | 4791 ft | 109 kts | 240° |
| 2026-05-08 12:56 | 52.69443 | -2.20135 | 5041 ft | 109 kts | 241° |
| 2026-05-08 12:57 | 52.69156 | -2.21257 | 5284 ft | 102 kts | 240° |
| 2026-05-08 12:57 | 52.68890 | -2.22298 | 5515 ft | 94 kts | 240° |
| 2026-05-08 12:57 | 52.68644 | -2.23253 | 5752 ft | 86 kts | 240° |
| 2026-05-08 12:57 | 52.68415 | -2.24133 | 5973 ft | 83 kts | 239° |
| 2026-05-08 12:58 | 52.68164 | -2.25099 | 5990 ft | 99 kts | 241° |
| 2026-05-08 12:58 | 52.67887 | -2.26195 | 6003 ft | 108 kts | 241° |
| 2026-05-08 12:58 | 52.67589 | -2.27365 | 6009 ft | 116 kts | 242° |
| 2026-05-08 12:58 | 52.67270 | -2.28619 | 6008 ft | 118 kts | 242° |
| 2026-05-08 12:59 | 52.66953 | -2.29866 | 6007 ft | 121 kts | 242° |
| 2026-05-08 12:59 | 52.66628 | -2.31156 | 6009 ft | 123 kts | 245° |
| 2026-05-08 12:59 | 52.66562 | -2.32594 | 6000 ft | 131 kts | 276° |
| 2026-05-08 12:59 | 52.66807 | -2.34044 | 6008 ft | 132 kts | 281° |
| 2026-05-08 13:00 | 52.67050 | -2.35505 | 6004 ft | 132 kts | 280° |
| 2026-05-08 13:00 | 52.67291 | -2.36962 | 6015 ft | 132 kts | 280° |
| 2026-05-08 13:00 | 52.67533 | -2.38423 | 6003 ft | 132 kts | 281° |
| 2026-05-08 13:00 | 52.67775 | -2.39882 | 6013 ft | 131 kts | 280° |
| 2026-05-08 13:01 | 52.68017 | -2.41340 | 6004 ft | 132 kts | 281° |
| 2026-05-08 13:01 | 52.68259 | -2.42799 | 6003 ft | 133 kts | 281° |
| 2026-05-08 13:01 | 52.68502 | -2.44274 | 6007 ft | 134 kts | 281° |
| 2026-05-08 13:01 | 52.68750 | -2.45777 | 6003 ft | 138 kts | 281° |
| 2026-05-08 13:02 | 52.69001 | -2.47289 | 5999 ft | 138 kts | 281° |
| 2026-05-08 13:02 | 52.69253 | -2.48816 | 6009 ft | 137 kts | 280° |
| 2026-05-08 13:02 | 52.69503 | -2.50334 | 6005 ft | 138 kts | 281° |
| 2026-05-08 13:02 | 52.69755 | -2.51862 | 6001 ft | 138 kts | 281° |
| 2026-05-08 13:03 | 52.70006 | -2.53392 | 5996 ft | 139 kts | 281° |
| 2026-05-08 13:03 | 52.70259 | -2.54932 | 5992 ft | 138 kts | 281° |
| 2026-05-08 13:03 | 52.70509 | -2.56458 | 5987 ft | 136 kts | 281° |
| 2026-05-08 13:03 | 52.70752 | -2.57944 | 5992 ft | 132 kts | 281° |
| 2026-05-08 13:04 | 52.70990 | -2.59404 | 5991 ft | 131 kts | 281° |
| 2026-05-08 13:04 | 52.71222 | -2.60830 | 5985 ft | 130 kts | 281° |
| 2026-05-08 13:04 | 52.71459 | -2.62285 | 5989 ft | 130 kts | 281° |
| 2026-05-08 13:04 | 52.71691 | -2.63706 | 5995 ft | 130 kts | 281° |
| 2026-05-08 13:05 | 52.71929 | -2.65165 | 5991 ft | 130 kts | 281° |
| 2026-05-08 13:05 | 52.72166 | -2.66615 | 5998 ft | 131 kts | 281° |
| 2026-05-08 13:05 | 52.72404 | -2.68073 | 5999 ft | 131 kts | 281° |
| 2026-05-08 13:05 | 52.72637 | -2.69511 | 5999 ft | 132 kts | 281° |
| 2026-05-08 13:06 | 52.72880 | -2.71001 | 6002 ft | 133 kts | 281° |
| 2026-05-08 13:06 | 52.73119 | -2.72469 | 6006 ft | 135 kts | 281° |
| 2026-05-08 13:06 | 52.73366 | -2.73983 | 6003 ft | 135 kts | 281° |
| 2026-05-08 13:06 | 52.73607 | -2.75471 | 5997 ft | 135 kts | 281° |
| 2026-05-08 13:07 | 52.73848 | -2.76957 | 5994 ft | 134 kts | 281° |
| 2026-05-08 13:07 | 52.74087 | -2.78438 | 5998 ft | 134 kts | 281° |
| 2026-05-08 13:07 | 52.74325 | -2.79914 | 5992 ft | 133 kts | 281° |
| 2026-05-08 13:07 | 52.74563 | -2.81384 | 5990 ft | 132 kts | 281° |
| 2026-05-08 13:08 | 52.74797 | -2.82839 | 5993 ft | 132 kts | 281° |
| 2026-05-08 13:08 | 52.75033 | -2.84304 | 5996 ft | 132 kts | 281° |
| 2026-05-08 13:08 | 52.75271 | -2.85774 | 5990 ft | 132 kts | 281° |
| 2026-05-08 13:08 | 52.75505 | -2.87231 | 5995 ft | 132 kts | 281° |
| 2026-05-08 13:09 | 52.75741 | -2.88698 | 5987 ft | 131 kts | 281° |
| 2026-05-08 13:09 | 52.75975 | -2.90148 | 5993 ft | 131 kts | 281° |
| 2026-05-08 13:09 | 52.76211 | -2.91618 | 5989 ft | 132 kts | 281° |
| 2026-05-08 13:09 | 52.76445 | -2.93083 | 5990 ft | 132 kts | 281° |
| 2026-05-08 13:10 | 52.76679 | -2.94544 | 5992 ft | 131 kts | 281° |
| 2026-05-08 13:10 | 52.76912 | -2.95994 | 5989 ft | 130 kts | 281° |
| 2026-05-08 13:10 | 52.77143 | -2.97436 | 5990 ft | 130 kts | 281° |
| 2026-05-08 13:10 | 52.77374 | -2.98890 | 5988 ft | 131 kts | 281° |
| 2026-05-08 13:11 | 52.77606 | -3.00340 | 5987 ft | 131 kts | 281° |
| 2026-05-08 13:11 | 52.77838 | -3.01789 | 5989 ft | 130 kts | 281° |
| 2026-05-08 13:11 | 52.78069 | -3.03237 | 5990 ft | 131 kts | 281° |
| 2026-05-08 13:11 | 52.78301 | -3.04701 | 5996 ft | 132 kts | 281° |
| 2026-05-08 13:12 | 52.78532 | -3.06144 | 5994 ft | 132 kts | 281° |
| 2026-05-08 13:12 | 52.78765 | -3.07614 | 5994 ft | 132 kts | 281° |
| 2026-05-08 13:12 | 52.78999 | -3.09085 | 6001 ft | 133 kts | 281° |
| 2026-05-08 13:12 | 52.79234 | -3.10563 | 5996 ft | 132 kts | 282° |
| 2026-05-08 13:13 | 52.79465 | -3.12025 | 5992 ft | 131 kts | 282° |
| 2026-05-08 13:13 | 52.79694 | -3.13471 | 5990 ft | 130 kts | 279° |
| 2026-05-08 13:13 | 52.79927 | -3.14932 | 5991 ft | 132 kts | 280° |
| 2026-05-08 13:13 | 52.80155 | -3.16373 | 5992 ft | 131 kts | 280° |
| 2026-05-08 13:14 | 52.80387 | -3.17837 | 5990 ft | 130 kts | 280° |
| 2026-05-08 13:14 | 52.80612 | -3.19268 | 5990 ft | 130 kts | 281° |
| 2026-05-08 13:14 | 52.80840 | -3.20720 | 6001 ft | 133 kts | 281° |
| 2026-05-08 13:14 | 52.81079 | -3.22216 | 6001 ft | 135 kts | 280° |
| 2026-05-08 13:15 | 52.81512 | -3.23608 | 5989 ft | 144 kts | 320° |
| 2026-05-08 13:15 | 52.82464 | -3.23979 | 6024 ft | 142 kts | 17° |
| 2026-05-08 13:15 | 52.83336 | -3.23341 | 6001 ft | 138 kts | 32° |
| 2026-05-08 13:15 | 52.84202 | -3.22621 | 6001 ft | 140 kts | 31° |
| 2026-05-08 13:16 | 52.85062 | -3.21904 | 5995 ft | 136 kts | 31° |
| 2026-05-08 13:16 | 52.85898 | -3.21212 | 5985 ft | 130 kts | 31° |
| 2026-05-08 13:16 | 52.86712 | -3.20590 | 5984 ft | 131 kts | 18° |
| 2026-05-08 13:16 | 52.87595 | -3.20953 | 5983 ft | 136 kts | 316° |
| 2026-05-08 13:17 | 52.88115 | -3.22230 | 5990 ft | 134 kts | 298° |
| 2026-05-08 13:17 | 52.88596 | -3.23527 | 5987 ft | 131 kts | 298° |
| 2026-05-08 13:17 | 52.89063 | -3.24792 | 5990 ft | 130 kts | 298° |
| 2026-05-08 13:17 | 52.89530 | -3.26085 | 5990 ft | 132 kts | 296° |
| 2026-05-08 13:18 | 52.89964 | -3.27448 | 6002 ft | 135 kts | 296° |
| 2026-05-08 13:18 | 52.90396 | -3.28830 | 6004 ft | 135 kts | 294° |
| 2026-05-08 13:18 | 52.90828 | -3.30226 | 5994 ft | 136 kts | 295° |
| 2026-05-08 13:18 | 52.91257 | -3.31625 | 5988 ft | 135 kts | 295° |
| 2026-05-08 13:19 | 52.91680 | -3.32998 | 5991 ft | 133 kts | 294° |
| 2026-05-08 13:19 | 52.92106 | -3.34358 | 5991 ft | 133 kts | 295° |
| 2026-05-08 13:19 | 52.92530 | -3.35721 | 5985 ft | 131 kts | 295° |
| 2026-05-08 13:19 | 52.92942 | -3.37069 | 5991 ft | 133 kts | 294° |
| 2026-05-08 13:20 | 52.93334 | -3.38464 | 5989 ft | 133 kts | 292° |
| 2026-05-08 13:20 | 52.93729 | -3.39851 | 5990 ft | 133 kts | 291° |
| 2026-05-08 13:20 | 52.94121 | -3.41233 | 5986 ft | 132 kts | 292° |
| 2026-05-08 13:20 | 52.94499 | -3.42593 | 5986 ft | 132 kts | 292° |
| 2026-05-08 13:21 | 52.94888 | -3.44000 | 5995 ft | 134 kts | 291° |
| 2026-05-08 13:21 | 52.95279 | -3.45382 | 5995 ft | 134 kts | 291° |
| 2026-05-08 13:21 | 52.95678 | -3.46792 | 5994 ft | 133 kts | 293° |
| 2026-05-08 13:21 | 52.96064 | -3.48158 | 5993 ft | 132 kts | 292° |
| 2026-05-08 13:22 | 52.96458 | -3.49541 | 5988 ft | 133 kts | 292° |
| 2026-05-08 13:22 | 52.96859 | -3.50953 | 5988 ft | 133 kts | 291° |
| 2026-05-08 13:22 | 52.97207 | -3.52348 | 5989 ft | 132 kts | 288° |
| 2026-05-08 13:22 | 52.97541 | -3.53761 | 5997 ft | 132 kts | 288° |
| 2026-05-08 13:23 | 52.97879 | -3.55184 | 5994 ft | 134 kts | 288° |
| 2026-05-08 13:23 | 52.98217 | -3.56627 | 5992 ft | 134 kts | 287° |
| 2026-05-08 13:23 | 52.98546 | -3.58056 | 5995 ft | 132 kts | 288° |
| 2026-05-08 13:23 | 52.98879 | -3.59478 | 5995 ft | 132 kts | 288° |
| 2026-05-08 13:24 | 52.99215 | -3.60894 | 5998 ft | 133 kts | 289° |
| 2026-05-08 13:24 | 52.99552 | -3.62344 | 5997 ft | 136 kts | 288° |
| 2026-05-08 13:24 | 52.99887 | -3.63818 | 5998 ft | 136 kts | 288° |
| 2026-05-08 13:24 | 53.00224 | -3.65287 | 5989 ft | 136 kts | 287° |
| 2026-05-08 13:25 | 53.00564 | -3.66742 | 5987 ft | 134 kts | 288° |
| 2026-05-08 13:25 | 53.00898 | -3.68173 | 5990 ft | 134 kts | 289° |
| 2026-05-08 13:25 | 53.01234 | -3.69617 | 5987 ft | 134 kts | 289° |
| 2026-05-08 13:25 | 53.01567 | -3.71057 | 5985 ft | 133 kts | 288° |
| 2026-05-08 13:26 | 53.01892 | -3.72474 | 5984 ft | 133 kts | 289° |
| 2026-05-08 13:26 | 53.02227 | -3.73935 | 5985 ft | 134 kts | 288° |
| 2026-05-08 13:26 | 53.02552 | -3.75360 | 5984 ft | 133 kts | 289° |
| 2026-05-08 13:26 | 53.02875 | -3.76795 | 5991 ft | 134 kts | 289° |
| 2026-05-08 13:27 | 53.03207 | -3.78252 | 5990 ft | 135 kts | 289° |
| 2026-05-08 13:27 | 53.03537 | -3.79715 | 5988 ft | 134 kts | 288° |
| 2026-05-08 13:27 | 53.03859 | -3.81163 | 5991 ft | 134 kts | 288° |
| 2026-05-08 13:27 | 53.04185 | -3.82621 | 5994 ft | 135 kts | 288° |
| 2026-05-08 13:28 | 53.04515 | -3.84094 | 5996 ft | 136 kts | 288° |
| 2026-05-08 13:28 | 53.04729 | -3.85072 | 5994 ft | 136 kts | 288° |
| 2026-05-08 13:28 | 53.05046 | -3.86549 | 5994 ft | 135 kts | 285° |
| 2026-05-08 13:28 | 53.05279 | -3.88055 | 5991 ft | 133 kts | 282° |
| 2026-05-08 13:29 | 53.05499 | -3.89550 | 5994 ft | 133 kts | 282° |
| 2026-05-08 13:29 | 53.05659 | -3.91069 | 5992 ft | 134 kts | 275° |
| 2026-05-08 13:29 | 53.05783 | -3.92612 | 5997 ft | 135 kts | 275° |
| 2026-05-08 13:29 | 53.05957 | -3.94672 | 5996 ft | 136 kts | 276° |
| 2026-05-08 13:30 | 53.06043 | -3.95725 | 5995 ft | 135 kts | 275° |
| 2026-05-08 13:30 | 53.06169 | -3.97259 | 5996 ft | 134 kts | 275° |
| 2026-05-08 13:30 | 53.06296 | -3.98785 | 5995 ft | 133 kts | 276° |
| 2026-05-08 13:30 | 53.06418 | -4.00285 | 5992 ft | 131 kts | 275° |
| 2026-05-08 13:31 | 53.06545 | -4.01811 | 5993 ft | 132 kts | 275° |
| 2026-05-08 13:31 | 53.06667 | -4.03294 | 5994 ft | 131 kts | 275° |
| 2026-05-08 13:31 | 53.06794 | -4.04825 | 5992 ft | 131 kts | 275° |
| 2026-05-08 13:31 | 53.06917 | -4.06308 | 6010 ft | 132 kts | 275° |
| 2026-05-08 13:32 | 53.07043 | -4.07757 | 5979 ft | 114 kts | 276° |
| 2026-05-08 13:32 | 53.07163 | -4.09084 | 5693 ft | 119 kts | 276° |
| 2026-05-08 13:32 | 53.07284 | -4.10428 | 5508 ft | 117 kts | 276° |
| 2026-05-08 13:32 | 53.07404 | -4.11769 | 5328 ft | 117 kts | 276° |
| 2026-05-08 13:33 | 53.07502 | -4.13102 | 5160 ft | 116 kts | 266° |
| 2026-05-08 13:33 | 53.07449 | -4.14436 | 4989 ft | 115 kts | 264° |
| 2026-05-08 13:33 | 53.07404 | -4.15764 | 4816 ft | 115 kts | 264° |
| 2026-05-08 13:33 | 53.07359 | -4.17089 | 4657 ft | 115 kts | 263° |
| 2026-05-08 13:34 | 53.07312 | -4.18405 | 4483 ft | 113 kts | 264° |
| 2026-05-08 13:34 | 53.07260 | -4.19706 | 4247 ft | 114 kts | 264° |
| 2026-05-08 13:34 | 53.07211 | -4.21028 | 4084 ft | 114 kts | 263° |
| 2026-05-08 13:34 | 53.07159 | -4.22328 | 3950 ft | 112 kts | 263° |
| 2026-05-08 13:35 | 53.07107 | -4.23625 | 3785 ft | 113 kts | 263° |
| 2026-05-08 13:35 | 53.07055 | -4.24928 | 3617 ft | 112 kts | 264° |
| 2026-05-08 13:35 | 53.06994 | -4.26227 | 3442 ft | 113 kts | 264° |
| 2026-05-08 13:35 | 53.06936 | -4.27537 | 3304 ft | 113 kts | 264° |
| 2026-05-08 13:36 | 53.06872 | -4.28845 | 3134 ft | 114 kts | 263° |
| 2026-05-08 13:36 | 53.06812 | -4.30156 | 2968 ft | 113 kts | 264° |
| 2026-05-08 13:36 | 53.06790 | -4.31428 | 2727 ft | 106 kts | 273° |
| 2026-05-08 13:36 | 53.06888 | -4.32591 | 2462 ft | 102 kts | 282° |
| 2026-05-08 13:37 | 53.07044 | -4.33781 | 2139 ft | 107 kts | 282° |
| 2026-05-08 13:37 | 53.07206 | -4.35045 | 1723 ft | 110 kts | 292° |
| 2026-05-08 13:37 | 53.07545 | -4.36098 | 1410 ft | 103 kts | 309° |
| 2026-05-08 13:37 | 53.08018 | -4.36975 | 1034 ft | 101 kts | 327° |
| 2026-05-08 13:38 | 53.08624 | -4.37347 | 753 ft | 90 kts | 5° |
| 2026-05-08 13:38 | 53.09195 | -4.36946 | 413 ft | 91 kts | 38° |
| 2026-05-08 13:38 | 53.09581 | -4.36212 | 208 ft | 81 kts | 56° |
| 2026-05-08 13:38 | 53.09823 | -4.35384 | 136 ft | 73 kts | 63° |
| 2026-05-08 13:39 | 53.10006 | -4.34592 | 49 ft | 70 kts | 65° |
| 2026-05-08 13:39 | 53.10149 | -4.33938 | 16 ft | 49 kts | 61° |
| 2026-05-08 13:39 | 53.10216 | -4.33626 | 16 ft | 14 kts | 88° |
| 2026-05-08 13:39 | 53.10150 | -4.33549 | 15 ft | 11 kts | 196° |
| 2026-05-08 13:40 | 53.10119 | -4.33634 | 15 ft | 8 kts | 168° |
| 2026-05-08 13:40 | 53.10113 | -4.33613 | 15 ft | 0 kts | 43° |